sensor_id;sensor_type;location;lat;lon;timestamp;temperature;humidity
48876;DHT22;34689;51.644;5.618;2022-11-15T00:00:17;8.60;99.90
48876;DHT22;34689;51.644;5.618;2022-11-15T00:02:42;8.70;99.90
48876;DHT22;34689;51.644;5.618;2022-11-15T00:05:08;8.60;99.90
48876;DHT22;34689;51.644;5.618;2022-11-15T00:07:34;8.70;99.90
48876;DHT22;34689;51.644;5.618;2022-11-15T00:09:59;8.70;99.90
48876;DHT22;34689;51.644;5.618;2022-11-15T00:12:27;8.70;99.90
48876;DHT22;34689;51.644;5.618;2022-11-15T00:14:53;8.70;99.90
48876;DHT22;34689;51.644;5.618;2022-11-15T00:17:18;8.70;99.90
48876;DHT22;34689;51.644;5.618;2022-11-15T00:19:44;8.70;99.90
48876;DHT22;34689;51.644;5.618;2022-11-15T00:22:10;8.70;99.90
48876;DHT22;34689;51.644;5.618;2022-11-15T00:24:36;8.70;99.90
48876;DHT22;34689;51.644;5.618;2022-11-15T00:27:01;8.80;99.90
48876;DHT22;34689;51.644;5.618;2022-11-15T00:29:27;8.80;99.90
48876;DHT22;34689;51.644;5.618;2022-11-15T00:31:53;8.80;99.90
48876;DHT22;34689;51.644;5.618;2022-11-15T00:34:18;8.80;99.90
48876;DHT22;34689;51.644;5.618;2022-11-15T00:36:44;8.80;99.90
48876;DHT22;34689;51.644;5.618;2022-11-15T00:39:10;8.80;99.90
48876;DHT22;34689;51.644;5.618;2022-11-15T00:41:35;8.90;99.90
48876;DHT22;34689;51.644;5.618;2022-11-15T00:44:01;8.90;99.90
48876;DHT22;34689;51.644;5.618;2022-11-15T00:46:26;8.90;99.90
48876;DHT22;34689;51.644;5.618;2022-11-15T00:48:52;8.90;99.90
48876;DHT22;34689;51.644;5.618;2022-11-15T00:51:20;9.00;99.90
48876;DHT22;34689;51.644;5.618;2022-11-15T00:53:46;9.00;99.90
48876;DHT22;34689;51.644;5.618;2022-11-15T00:56:12;9.00;99.90
48876;DHT22;34689;51.644;5.618;2022-11-15T00:58:37;9.00;99.90
48876;DHT22;34689;51.644;5.618;2022-11-15T01:01:12;9.00;99.90
48876;DHT22;34689;51.644;5.618;2022-11-15T01:03:39;9.10;99.90
48876;DHT22;34689;51.644;5.618;2022-11-15T01:06:06;9.10;99.90
48876;DHT22;34689;51.644;5.618;2022-11-15T01:08:32;9.10;99.90
48876;DHT22;34689;51.644;5.618;2022-11-15T01:11:03;9.10;99.90
48876;DHT22;34689;51.644;5.618;2022-11-15T01:13:33;9.20;99.90
48876;DHT22;34689;51.644;5.618;2022-11-15T01:16:33;9.20;99.90
48876;DHT22;34689;51.644;5.618;2022-11-15T01:18:51;9.20;99.90
48876;DHT22;34689;51.644;5.618;2022-11-15T01:21:18;9.20;99.90
48876;DHT22;34689;51.644;5.618;2022-11-15T01:23:44;9.30;99.90
48876;DHT22;34689;51.644;5.618;2022-11-15T01:26:15;9.30;99.90
48876;DHT22;34689;51.644;5.618;2022-11-15T01:28:42;9.30;99.90
48876;DHT22;34689;51.644;5.618;2022-11-15T01:31:13;9.40;99.90
48876;DHT22;34689;51.644;5.618;2022-11-15T01:33:41;9.30;99.90
48876;DHT22;34689;51.644;5.618;2022-11-15T01:36:10;9.40;99.90
48876;DHT22;34689;51.644;5.618;2022-11-15T01:38:36;9.40;99.90
48876;DHT22;34689;51.644;5.618;2022-11-15T01:41:02;9.40;99.90
48876;DHT22;34689;51.644;5.618;2022-11-15T01:43:33;9.40;99.90
48876;DHT22;34689;51.644;5.618;2022-11-15T01:46:06;9.50;99.90
48876;DHT22;34689;51.644;5.618;2022-11-15T01:48:36;9.50;99.90
48876;DHT22;34689;51.644;5.618;2022-11-15T01:51:06;9.50;99.90
48876;DHT22;34689;51.644;5.618;2022-11-15T01:53:34;9.50;99.90
48876;DHT22;34689;51.644;5.618;2022-11-15T01:56:04;9.50;99.90
48876;DHT22;34689;51.644;5.618;2022-11-15T01:58:32;9.60;99.90
48876;DHT22;34689;51.644;5.618;2022-11-15T02:00:58;9.50;99.90
48876;DHT22;34689;51.644;5.618;2022-11-15T02:03:29;9.60;99.90
48876;DHT22;34689;51.644;5.618;2022-11-15T02:05:57;9.60;99.90
48876;DHT22;34689;51.644;5.618;2022-11-15T02:08:23;9.60;99.90
48876;DHT22;34689;51.644;5.618;2022-11-15T02:10:49;9.60;99.90
48876;DHT22;34689;51.644;5.618;2022-11-15T02:13:16;9.60;99.90
48876;DHT22;34689;51.644;5.618;2022-11-15T02:16:25;9.60;99.90
48876;DHT22;34689;51.644;5.618;2022-11-15T02:32:34;9.60;99.90
48876;DHT22;34689;51.644;5.618;2022-11-15T02:43:16;9.70;99.90
48876;DHT22;34689;51.644;5.618;2022-11-15T02:49:13;9.80;99.90
48876;DHT22;34689;51.644;5.618;2022-11-15T02:51:40;9.80;99.90
48876;DHT22;34689;51.644;5.618;2022-11-15T02:54:06;9.80;99.90
48876;DHT22;34689;51.644;5.618;2022-11-15T02:56:32;9.80;99.90
48876;DHT22;34689;51.644;5.618;2022-11-15T02:59:23;9.90;99.90
48876;DHT22;34689;51.644;5.618;2022-11-15T03:04:44;9.90;99.90
48876;DHT22;34689;51.644;5.618;2022-11-15T03:07:20;9.90;99.90
48876;DHT22;34689;51.644;5.618;2022-11-15T03:10:11;9.90;99.90
48876;DHT22;34689;51.644;5.618;2022-11-15T03:12:55;10.00;99.90
48876;DHT22;34689;51.644;5.618;2022-11-15T03:15:26;10.00;99.90
48876;DHT22;34689;51.644;5.618;2022-11-15T03:18:01;10.00;99.90
48876;DHT22;34689;51.644;5.618;2022-11-15T03:20:31;10.00;99.90
48876;DHT22;34689;51.644;5.618;2022-11-15T03:23:03;10.00;99.90
48876;DHT22;34689;51.644;5.618;2022-11-15T03:25:34;10.00;99.90
48876;DHT22;34689;51.644;5.618;2022-11-15T03:28:03;10.00;99.90
48876;DHT22;34689;51.644;5.618;2022-11-15T03:30:32;10.00;99.90
48876;DHT22;34689;51.644;5.618;2022-11-15T03:33:02;10.10;99.90
48876;DHT22;34689;51.644;5.618;2022-11-15T03:35:34;10.10;99.90
48876;DHT22;34689;51.644;5.618;2022-11-15T03:38:06;10.10;99.90
48876;DHT22;34689;51.644;5.618;2022-11-15T03:40:38;10.10;99.90
48876;DHT22;34689;51.644;5.618;2022-11-15T03:46:14;10.20;99.90
48876;DHT22;34689;51.644;5.618;2022-11-15T03:48:43;10.20;99.90
48876;DHT22;34689;51.644;5.618;2022-11-15T03:51:10;10.20;99.90
48876;DHT22;34689;51.644;5.618;2022-11-15T03:53:36;10.20;99.90
48876;DHT22;34689;51.644;5.618;2022-11-15T03:56:02;10.20;99.90
48876;DHT22;34689;51.644;5.618;2022-11-15T03:58:27;10.20;99.90
48876;DHT22;34689;51.644;5.618;2022-11-15T04:00:53;10.20;99.90
48876;DHT22;34689;51.644;5.618;2022-11-15T04:03:19;10.20;99.90
48876;DHT22;34689;51.644;5.618;2022-11-15T04:05:44;10.30;99.90
48876;DHT22;34689;51.644;5.618;2022-11-15T04:08:10;10.30;99.90
48876;DHT22;34689;51.644;5.618;2022-11-15T04:10:36;10.30;99.90
48876;DHT22;34689;51.644;5.618;2022-11-15T04:13:02;10.30;99.90
48876;DHT22;34689;51.644;5.618;2022-11-15T04:15:28;10.30;99.90
48876;DHT22;34689;51.644;5.618;2022-11-15T04:17:58;10.30;99.90
48876;DHT22;34689;51.644;5.618;2022-11-15T04:20:29;10.30;99.90
48876;DHT22;34689;51.644;5.618;2022-11-15T04:23:18;10.30;99.90
48876;DHT22;34689;51.644;5.618;2022-11-15T04:26:17;10.30;99.90
48876;DHT22;34689;51.644;5.618;2022-11-15T04:28:44;10.40;99.90
48876;DHT22;34689;51.644;5.618;2022-11-15T04:31:28;10.40;99.90
48876;DHT22;34689;51.644;5.618;2022-11-15T04:33:54;10.40;99.90
48876;DHT22;34689;51.644;5.618;2022-11-15T04:36:20;10.40;99.90
48876;DHT22;34689;51.644;5.618;2022-11-15T04:39:04;10.40;99.90
48876;DHT22;34689;51.644;5.618;2022-11-15T04:41:32;10.40;99.90
48876;DHT22;34689;51.644;5.618;2022-11-15T04:43:58;10.40;99.90
48876;DHT22;34689;51.644;5.618;2022-11-15T04:46:26;10.40;99.90
48876;DHT22;34689;51.644;5.618;2022-11-15T04:48:54;10.40;99.90
48876;DHT22;34689;51.644;5.618;2022-11-15T04:51:20;10.40;99.90
48876;DHT22;34689;51.644;5.618;2022-11-15T04:53:45;10.40;99.90
48876;DHT22;34689;51.644;5.618;2022-11-15T04:56:11;10.40;99.90
48876;DHT22;34689;51.644;5.618;2022-11-15T04:58:37;10.40;99.90
48876;DHT22;34689;51.644;5.618;2022-11-15T05:01:07;10.40;99.90
48876;DHT22;34689;51.644;5.618;2022-11-15T05:03:33;10.40;99.90
48876;DHT22;34689;51.644;5.618;2022-11-15T05:06:17;10.40;99.90
48876;DHT22;34689;51.644;5.618;2022-11-15T05:08:43;10.40;99.90
48876;DHT22;34689;51.644;5.618;2022-11-15T05:11:08;10.40;99.90
48876;DHT22;34689;51.644;5.618;2022-11-15T05:13:34;10.50;99.90
48876;DHT22;34689;51.644;5.618;2022-11-15T05:15:59;10.50;99.90
48876;DHT22;34689;51.644;5.618;2022-11-15T05:18:25;10.40;99.90
48876;DHT22;34689;51.644;5.618;2022-11-15T05:20:51;10.50;99.90
48876;DHT22;34689;51.644;5.618;2022-11-15T05:23:16;10.50;99.90
48876;DHT22;34689;51.644;5.618;2022-11-15T05:25:42;10.50;99.90
48876;DHT22;34689;51.644;5.618;2022-11-15T05:28:08;10.50;99.90
48876;DHT22;34689;51.644;5.618;2022-11-15T05:30:33;10.50;99.90
48876;DHT22;34689;51.644;5.618;2022-11-15T05:32:59;10.50;99.90
48876;DHT22;34689;51.644;5.618;2022-11-15T05:35:38;10.50;99.90
48876;DHT22;34689;51.644;5.618;2022-11-15T05:38:05;10.50;99.90
48876;DHT22;34689;51.644;5.618;2022-11-15T05:40:31;10.50;99.90
48876;DHT22;34689;51.644;5.618;2022-11-15T05:43:00;10.50;99.90
48876;DHT22;34689;51.644;5.618;2022-11-15T05:45:27;10.50;99.90
48876;DHT22;34689;51.644;5.618;2022-11-15T05:47:55;10.50;99.90
48876;DHT22;34689;51.644;5.618;2022-11-15T05:50:25;10.50;99.90
48876;DHT22;34689;51.644;5.618;2022-11-15T05:52:51;10.50;99.90
48876;DHT22;34689;51.644;5.618;2022-11-15T05:55:17;10.50;99.90
48876;DHT22;34689;51.644;5.618;2022-11-15T05:57:44;10.50;99.90
48876;DHT22;34689;51.644;5.618;2022-11-15T06:00:10;10.50;99.90
48876;DHT22;34689;51.644;5.618;2022-11-15T06:02:36;10.50;99.90
48876;DHT22;34689;51.644;5.618;2022-11-15T06:05:02;10.50;99.90
48876;DHT22;34689;51.644;5.618;2022-11-15T06:07:29;10.50;99.90
48876;DHT22;34689;51.644;5.618;2022-11-15T06:09:55;10.60;99.90
48876;DHT22;34689;51.644;5.618;2022-11-15T06:12:20;10.60;99.90
48876;DHT22;34689;51.644;5.618;2022-11-15T06:14:46;10.50;99.90
48876;DHT22;34689;51.644;5.618;2022-11-15T06:17:14;10.50;99.90
48876;DHT22;34689;51.644;5.618;2022-11-15T06:19:39;10.60;99.90
48876;DHT22;34689;51.644;5.618;2022-11-15T06:22:05;10.60;99.90
48876;DHT22;34689;51.644;5.618;2022-11-15T06:24:31;10.60;99.90
48876;DHT22;34689;51.644;5.618;2022-11-15T06:26:56;10.60;99.90
48876;DHT22;34689;51.644;5.618;2022-11-15T06:29:23;10.60;99.90
48876;DHT22;34689;51.644;5.618;2022-11-15T06:31:48;10.60;99.90
48876;DHT22;34689;51.644;5.618;2022-11-15T06:34:14;10.60;99.90
48876;DHT22;34689;51.644;5.618;2022-11-15T06:36:40;10.60;99.90
48876;DHT22;34689;51.644;5.618;2022-11-15T06:39:06;10.60;99.90
48876;DHT22;34689;51.644;5.618;2022-11-15T06:41:34;10.60;99.90
48876;DHT22;34689;51.644;5.618;2022-11-15T06:44:00;10.70;99.90
48876;DHT22;34689;51.644;5.618;2022-11-15T06:46:26;10.60;99.90
48876;DHT22;34689;51.644;5.618;2022-11-15T06:48:53;10.60;99.90
48876;DHT22;34689;51.644;5.618;2022-11-15T06:51:19;10.60;99.90
48876;DHT22;34689;51.644;5.618;2022-11-15T06:53:48;10.60;99.90
48876;DHT22;34689;51.644;5.618;2022-11-15T06:56:13;10.60;99.90
48876;DHT22;34689;51.644;5.618;2022-11-15T06:58:41;10.70;99.90
48876;DHT22;34689;51.644;5.618;2022-11-15T07:01:10;10.70;99.90
48876;DHT22;34689;51.644;5.618;2022-11-15T07:03:40;10.60;99.90
48876;DHT22;34689;51.644;5.618;2022-11-15T07:06:07;10.60;99.90
48876;DHT22;34689;51.644;5.618;2022-11-15T07:08:33;10.60;99.90
48876;DHT22;34689;51.644;5.618;2022-11-15T07:11:01;10.70;99.90
48876;DHT22;34689;51.644;5.618;2022-11-15T07:13:29;10.70;99.90
48876;DHT22;34689;51.644;5.618;2022-11-15T07:16:01;10.70;99.90
48876;DHT22;34689;51.644;5.618;2022-11-15T07:18:26;10.70;99.90
48876;DHT22;34689;51.644;5.618;2022-11-15T07:20:53;10.70;99.90
48876;DHT22;34689;51.644;5.618;2022-11-15T07:23:18;10.70;99.90
48876;DHT22;34689;51.644;5.618;2022-11-15T07:25:44;10.70;99.90
48876;DHT22;34689;51.644;5.618;2022-11-15T07:28:09;10.70;99.90
48876;DHT22;34689;51.644;5.618;2022-11-15T07:30:35;10.70;99.90
48876;DHT22;34689;51.644;5.618;2022-11-15T07:33:01;10.70;99.90
48876;DHT22;34689;51.644;5.618;2022-11-15T07:35:28;10.70;99.90
48876;DHT22;34689;51.644;5.618;2022-11-15T07:38:02;10.70;99.90
48876;DHT22;34689;51.644;5.618;2022-11-15T07:40:30;10.70;99.90
48876;DHT22;34689;51.644;5.618;2022-11-15T07:43:05;10.70;99.90
48876;DHT22;34689;51.644;5.618;2022-11-15T07:45:31;10.70;99.90
48876;DHT22;34689;51.644;5.618;2022-11-15T07:47:59;10.70;99.90
48876;DHT22;34689;51.644;5.618;2022-11-15T07:50:25;10.70;99.90
48876;DHT22;34689;51.644;5.618;2022-11-15T07:52:55;10.70;99.90
48876;DHT22;34689;51.644;5.618;2022-11-15T07:55:22;10.70;99.90
48876;DHT22;34689;51.644;5.618;2022-11-15T07:57:48;10.70;99.90
48876;DHT22;34689;51.644;5.618;2022-11-15T08:00:14;10.70;99.90
48876;DHT22;34689;51.644;5.618;2022-11-15T08:02:40;10.70;99.90
48876;DHT22;34689;51.644;5.618;2022-11-15T08:05:06;10.70;99.90
48876;DHT22;34689;51.644;5.618;2022-11-15T08:07:32;10.70;99.90
48876;DHT22;34689;51.644;5.618;2022-11-15T08:09:58;10.70;99.90
48876;DHT22;34689;51.644;5.618;2022-11-15T08:12:27;10.70;99.90
48876;DHT22;34689;51.644;5.618;2022-11-15T08:14:56;10.80;99.90
48876;DHT22;34689;51.644;5.618;2022-11-15T08:17:23;10.70;99.90
48876;DHT22;34689;51.644;5.618;2022-11-15T08:19:48;10.80;99.90
48876;DHT22;34689;51.644;5.618;2022-11-15T08:22:14;10.70;99.90
48876;DHT22;34689;51.644;5.618;2022-11-15T08:24:40;10.80;99.90
48876;DHT22;34689;51.644;5.618;2022-11-15T08:27:06;10.80;99.90
48876;DHT22;34689;51.644;5.618;2022-11-15T08:29:42;10.80;99.90
48876;DHT22;34689;51.644;5.618;2022-11-15T08:32:08;10.80;99.90
48876;DHT22;34689;51.644;5.618;2022-11-15T08:34:34;10.80;99.90
48876;DHT22;34689;51.644;5.618;2022-11-15T08:37:02;10.80;99.90
48876;DHT22;34689;51.644;5.618;2022-11-15T08:39:28;10.80;99.90
48876;DHT22;34689;51.644;5.618;2022-11-15T08:41:53;10.80;99.90
48876;DHT22;34689;51.644;5.618;2022-11-15T08:44:19;10.80;99.90
48876;DHT22;34689;51.644;5.618;2022-11-15T08:46:50;10.80;99.90
48876;DHT22;34689;51.644;5.618;2022-11-15T08:49:16;10.80;99.90
48876;DHT22;34689;51.644;5.618;2022-11-15T08:51:42;10.90;99.90
48876;DHT22;34689;51.644;5.618;2022-11-15T08:54:08;10.90;99.90
48876;DHT22;34689;51.644;5.618;2022-11-15T08:56:34;10.90;99.90
48876;DHT22;34689;51.644;5.618;2022-11-15T08:58:59;10.90;99.90
48876;DHT22;34689;51.644;5.618;2022-11-15T09:01:25;10.90;99.90
48876;DHT22;34689;51.644;5.618;2022-11-15T09:03:51;11.00;99.90
48876;DHT22;34689;51.644;5.618;2022-11-15T09:06:16;11.00;99.90
48876;DHT22;34689;51.644;5.618;2022-11-15T09:08:42;11.00;99.90
48876;DHT22;34689;51.644;5.618;2022-11-15T09:11:09;11.00;99.90
48876;DHT22;34689;51.644;5.618;2022-11-15T09:13:35;11.00;99.90
48876;DHT22;34689;51.644;5.618;2022-11-15T09:16:03;11.10;99.90
48876;DHT22;34689;51.644;5.618;2022-11-15T09:18:29;11.10;99.90
48876;DHT22;34689;51.644;5.618;2022-11-15T09:20:59;11.10;99.90
48876;DHT22;34689;51.644;5.618;2022-11-15T09:23:26;11.10;99.90
48876;DHT22;34689;51.644;5.618;2022-11-15T09:25:52;11.10;99.90
48876;DHT22;34689;51.644;5.618;2022-11-15T09:28:23;11.10;99.90
48876;DHT22;34689;51.644;5.618;2022-11-15T09:30:48;11.20;99.90
48876;DHT22;34689;51.644;5.618;2022-11-15T09:33:14;11.20;99.90
48876;DHT22;34689;51.644;5.618;2022-11-15T09:35:40;11.20;99.90
48876;DHT22;34689;51.644;5.618;2022-11-15T09:38:08;11.20;99.90
48876;DHT22;34689;51.644;5.618;2022-11-15T09:40:36;11.30;99.90
48876;DHT22;34689;51.644;5.618;2022-11-15T09:49:08;11.90;99.90
48876;DHT22;34689;51.644;5.618;2022-11-15T09:51:37;12.50;99.90
48876;DHT22;34689;51.644;5.618;2022-11-15T09:54:27;13.70;99.90
48876;DHT22;34689;51.644;5.618;2022-11-15T09:56:56;15.00;99.90
48876;DHT22;34689;51.644;5.618;2022-11-15T10:02:21;16.20;99.90
48876;DHT22;34689;51.644;5.618;2022-11-15T10:04:49;16.70;99.90
48876;DHT22;34689;51.644;5.618;2022-11-15T10:07:23;16.60;99.90
48876;DHT22;34689;51.644;5.618;2022-11-15T10:10:01;16.00;99.90
48876;DHT22;34689;51.644;5.618;2022-11-15T10:12:30;15.50;99.90
48876;DHT22;34689;51.644;5.618;2022-11-15T10:15:11;14.90;99.90
48876;DHT22;34689;51.644;5.618;2022-11-15T10:18:08;14.40;99.90
48876;DHT22;34689;51.644;5.618;2022-11-15T10:20:46;14.20;99.90
48876;DHT22;34689;51.644;5.618;2022-11-15T10:23:14;14.10;99.90
48876;DHT22;34689;51.644;5.618;2022-11-15T10:25:43;14.00;99.90
48876;DHT22;34689;51.644;5.618;2022-11-15T10:30:56;14.00;99.90
48876;DHT22;34689;51.644;5.618;2022-11-15T10:33:35;14.00;99.90
48876;DHT22;34689;51.644;5.618;2022-11-15T10:41:15;13.90;99.90
48876;DHT22;34689;51.644;5.618;2022-11-15T10:43:41;13.70;99.90
48876;DHT22;34689;51.644;5.618;2022-11-15T10:46:21;13.60;99.90
48876;DHT22;34689;51.644;5.618;2022-11-15T10:48:48;13.50;99.90
48876;DHT22;34689;51.644;5.618;2022-11-15T10:51:27;13.40;99.90
48876;DHT22;34689;51.644;5.618;2022-11-15T10:53:56;13.40;99.90
48876;DHT22;34689;51.644;5.618;2022-11-15T10:56:24;13.30;99.90
48876;DHT22;34689;51.644;5.618;2022-11-15T10:58:55;13.20;99.90
48876;DHT22;34689;51.644;5.618;2022-11-15T11:01:28;13.10;99.90
48876;DHT22;34689;51.644;5.618;2022-11-15T11:04:00;13.00;99.90
48876;DHT22;34689;51.644;5.618;2022-11-15T11:06:26;13.00;99.90
48876;DHT22;34689;51.644;5.618;2022-11-15T11:09:05;13.00;99.90
48876;DHT22;34689;51.644;5.618;2022-11-15T11:11:48;12.90;99.90
48876;DHT22;34689;51.644;5.618;2022-11-15T11:14:39;13.00;99.90
48876;DHT22;34689;51.644;5.618;2022-11-15T11:17:23;13.00;99.90
48876;DHT22;34689;51.644;5.618;2022-11-15T11:22:50;13.10;99.90
48876;DHT22;34689;51.644;5.618;2022-11-15T11:25:37;13.10;99.90
48876;DHT22;34689;51.644;5.618;2022-11-15T11:36:41;13.30;99.90
48876;DHT22;34689;51.644;5.618;2022-11-15T11:39:34;13.20;99.90
48876;DHT22;34689;51.644;5.618;2022-11-15T11:42:10;13.20;99.90
48876;DHT22;34689;51.644;5.618;2022-11-15T11:44:57;13.10;99.90
48876;DHT22;34689;51.644;5.618;2022-11-15T11:47:24;13.10;99.90
48876;DHT22;34689;51.644;5.618;2022-11-15T11:49:59;13.00;99.90
48876;DHT22;34689;51.644;5.618;2022-11-15T11:55:03;13.00;99.90
48876;DHT22;34689;51.644;5.618;2022-11-15T12:00:20;13.00;99.90
48876;DHT22;34689;51.644;5.618;2022-11-15T12:05:51;13.10;99.90
48876;DHT22;34689;51.644;5.618;2022-11-15T12:11:28;13.10;99.90
48876;DHT22;34689;51.644;5.618;2022-11-15T12:14:05;13.10;99.90
48876;DHT22;34689;51.644;5.618;2022-11-15T12:16:33;13.10;99.90
48876;DHT22;34689;51.644;5.618;2022-11-15T12:19:02;13.10;99.90
48876;DHT22;34689;51.644;5.618;2022-11-15T12:27:01;13.20;99.90
48876;DHT22;34689;51.644;5.618;2022-11-15T12:29:52;13.20;99.90
48876;DHT22;34689;51.644;5.618;2022-11-15T12:32:31;13.20;99.90
48876;DHT22;34689;51.644;5.618;2022-11-15T12:34:59;13.20;99.90
48876;DHT22;34689;51.644;5.618;2022-11-15T12:42:56;13.30;99.90
48876;DHT22;34689;51.644;5.618;2022-11-15T12:58:56;13.20;99.90
48876;DHT22;34689;51.644;5.618;2022-11-15T13:11:58;13.10;99.90
48876;DHT22;34689;51.644;5.618;2022-11-15T13:15:07;13.10;99.90
48876;DHT22;34689;51.644;5.618;2022-11-15T13:17:38;13.10;99.90
48876;DHT22;34689;51.644;5.618;2022-11-15T13:27:48;13.10;99.90
48876;DHT22;34689;51.644;5.618;2022-11-15T13:30:25;13.10;99.90
48876;DHT22;34689;51.644;5.618;2022-11-15T13:32:54;13.10;99.90
48876;DHT22;34689;51.644;5.618;2022-11-15T13:35:25;13.10;99.90
48876;DHT22;34689;51.644;5.618;2022-11-15T13:37:52;13.10;99.90
48876;DHT22;34689;51.644;5.618;2022-11-15T13:40:35;13.00;99.90
48876;DHT22;34689;51.644;5.618;2022-11-15T13:46:03;13.00;99.90
48876;DHT22;34689;51.644;5.618;2022-11-15T13:48:29;13.00;99.90
48876;DHT22;34689;51.644;5.618;2022-11-15T13:50:56;13.00;99.90
48876;DHT22;34689;51.644;5.618;2022-11-15T13:53:22;13.00;99.90
48876;DHT22;34689;51.644;5.618;2022-11-15T13:55:48;13.00;99.90
48876;DHT22;34689;51.644;5.618;2022-11-15T13:58:17;13.00;99.90
48876;DHT22;34689;51.644;5.618;2022-11-15T14:00:44;13.00;99.90
48876;DHT22;34689;51.644;5.618;2022-11-15T14:03:28;12.90;99.90
48876;DHT22;34689;51.644;5.618;2022-11-15T14:08:33;12.90;99.90
48876;DHT22;34689;51.644;5.618;2022-11-15T14:11:07;12.90;99.90
48876;DHT22;34689;51.644;5.618;2022-11-15T14:13:34;12.90;99.90
48876;DHT22;34689;51.644;5.618;2022-11-15T14:16:20;12.90;99.90
48876;DHT22;34689;51.644;5.618;2022-11-15T14:18:53;12.90;99.90
48876;DHT22;34689;51.644;5.618;2022-11-15T14:21:21;12.80;99.90
48876;DHT22;34689;51.644;5.618;2022-11-15T14:23:47;12.80;99.90
48876;DHT22;34689;51.644;5.618;2022-11-15T14:26:35;12.80;99.90
48876;DHT22;34689;51.644;5.618;2022-11-15T14:29:27;12.80;99.90
48876;DHT22;34689;51.644;5.618;2022-11-15T14:31:53;12.80;99.90
48876;DHT22;34689;51.644;5.618;2022-11-15T14:34:20;12.80;99.90
48876;DHT22;34689;51.644;5.618;2022-11-15T14:36:47;12.80;99.90
48876;DHT22;34689;51.644;5.618;2022-11-15T14:39:13;12.80;99.90
48876;DHT22;34689;51.644;5.618;2022-11-15T14:41:39;12.70;99.90
48876;DHT22;34689;51.644;5.618;2022-11-15T14:44:05;12.70;99.90
48876;DHT22;34689;51.644;5.618;2022-11-15T14:46:31;12.70;99.90
48876;DHT22;34689;51.644;5.618;2022-11-15T14:48:57;12.70;99.90
48876;DHT22;34689;51.644;5.618;2022-11-15T14:51:25;12.70;99.90
48876;DHT22;34689;51.644;5.618;2022-11-15T14:53:51;12.70;99.90
48876;DHT22;34689;51.644;5.618;2022-11-15T14:56:17;12.70;99.90
48876;DHT22;34689;51.644;5.618;2022-11-15T14:58:43;12.70;99.90
48876;DHT22;34689;51.644;5.618;2022-11-15T15:01:22;12.70;99.90
48876;DHT22;34689;51.644;5.618;2022-11-15T15:03:48;12.60;99.90
48876;DHT22;34689;51.644;5.618;2022-11-15T15:06:17;12.70;99.90
48876;DHT22;34689;51.644;5.618;2022-11-15T15:08:42;12.60;99.90
48876;DHT22;34689;51.644;5.618;2022-11-15T15:11:15;12.60;99.90
48876;DHT22;34689;51.644;5.618;2022-11-15T15:13:41;12.60;99.90
48876;DHT22;34689;51.644;5.618;2022-11-15T15:16:07;12.60;99.90
48876;DHT22;34689;51.644;5.618;2022-11-15T15:18:32;12.60;99.90
48876;DHT22;34689;51.644;5.618;2022-11-15T15:20:59;12.60;99.90
48876;DHT22;34689;51.644;5.618;2022-11-15T15:23:27;12.60;99.90
48876;DHT22;34689;51.644;5.618;2022-11-15T15:25:56;12.60;99.90
48876;DHT22;34689;51.644;5.618;2022-11-15T15:28:22;12.60;99.90
48876;DHT22;34689;51.644;5.618;2022-11-15T15:30:48;12.60;99.90
48876;DHT22;34689;51.644;5.618;2022-11-15T15:33:15;12.50;99.90
48876;DHT22;34689;51.644;5.618;2022-11-15T15:35:41;12.50;99.90
48876;DHT22;34689;51.644;5.618;2022-11-15T15:38:11;12.50;99.90
48876;DHT22;34689;51.644;5.618;2022-11-15T15:40:37;12.50;99.90
48876;DHT22;34689;51.644;5.618;2022-11-15T15:43:03;12.50;99.90
48876;DHT22;34689;51.644;5.618;2022-11-15T15:45:29;12.50;99.90
48876;DHT22;34689;51.644;5.618;2022-11-15T15:47:55;12.50;99.90
48876;DHT22;34689;51.644;5.618;2022-11-15T15:50:27;12.50;99.90
48876;DHT22;34689;51.644;5.618;2022-11-15T15:52:55;12.50;99.90
48876;DHT22;34689;51.644;5.618;2022-11-15T15:55:21;12.50;99.90
48876;DHT22;34689;51.644;5.618;2022-11-15T15:57:47;12.50;99.90
48876;DHT22;34689;51.644;5.618;2022-11-15T16:00:14;12.50;99.90
48876;DHT22;34689;51.644;5.618;2022-11-15T16:02:40;12.50;99.90
48876;DHT22;34689;51.644;5.618;2022-11-15T16:05:07;12.50;99.90
48876;DHT22;34689;51.644;5.618;2022-11-15T16:07:33;12.50;99.90
48876;DHT22;34689;51.644;5.618;2022-11-15T16:09:58;12.50;99.90
48876;DHT22;34689;51.644;5.618;2022-11-15T16:14:53;12.50;99.90
48876;DHT22;34689;51.644;5.618;2022-11-15T16:17:20;12.50;99.90
48876;DHT22;34689;51.644;5.618;2022-11-15T16:19:46;12.50;99.90
48876;DHT22;34689;51.644;5.618;2022-11-15T16:22:12;12.50;99.90
48876;DHT22;34689;51.644;5.618;2022-11-15T16:24:38;12.50;99.90
48876;DHT22;34689;51.644;5.618;2022-11-15T16:27:03;12.50;99.90
48876;DHT22;34689;51.644;5.618;2022-11-15T16:29:29;12.50;99.90
48876;DHT22;34689;51.644;5.618;2022-11-15T16:31:55;12.50;99.90
48876;DHT22;34689;51.644;5.618;2022-11-15T16:34:21;12.50;99.90
48876;DHT22;34689;51.644;5.618;2022-11-15T16:36:47;12.50;99.90
48876;DHT22;34689;51.644;5.618;2022-11-15T16:39:13;12.50;99.90
48876;DHT22;34689;51.644;5.618;2022-11-15T16:41:40;12.50;99.90
48876;DHT22;34689;51.644;5.618;2022-11-15T16:44:05;12.50;99.90
48876;DHT22;34689;51.644;5.618;2022-11-15T16:46:31;12.50;99.90
48876;DHT22;34689;51.644;5.618;2022-11-15T16:48:59;12.50;99.90
48876;DHT22;34689;51.644;5.618;2022-11-15T16:51:25;12.50;99.90
48876;DHT22;34689;51.644;5.618;2022-11-15T16:53:51;12.50;99.90
48876;DHT22;34689;51.644;5.618;2022-11-15T16:58:45;12.50;99.90
48876;DHT22;34689;51.644;5.618;2022-11-15T17:01:35;12.40;99.90
48876;DHT22;34689;51.644;5.618;2022-11-15T17:04:03;12.40;99.90
48876;DHT22;34689;51.644;5.618;2022-11-15T17:06:41;12.40;99.90
48876;DHT22;34689;51.644;5.618;2022-11-15T17:09:12;12.40;99.90
48876;DHT22;34689;51.644;5.618;2022-11-15T17:11:40;12.40;99.90
48876;DHT22;34689;51.644;5.618;2022-11-15T17:14:06;12.30;99.90
48876;DHT22;34689;51.644;5.618;2022-11-15T17:16:32;12.30;99.90
48876;DHT22;34689;51.644;5.618;2022-11-15T17:18:58;12.30;99.90
48876;DHT22;34689;51.644;5.618;2022-11-15T17:21:24;12.20;99.90
48876;DHT22;34689;51.644;5.618;2022-11-15T17:23:53;12.20;99.90
48876;DHT22;34689;51.644;5.618;2022-11-15T17:26:21;12.20;99.90
48876;DHT22;34689;51.644;5.618;2022-11-15T17:28:47;12.20;99.90
48876;DHT22;34689;51.644;5.618;2022-11-15T17:31:13;12.10;99.90
48876;DHT22;34689;51.644;5.618;2022-11-15T17:33:40;12.10;99.90
48876;DHT22;34689;51.644;5.618;2022-11-15T17:36:08;12.10;99.90
48876;DHT22;34689;51.644;5.618;2022-11-15T17:38:35;12.10;99.90
48876;DHT22;34689;51.644;5.618;2022-11-15T17:41:06;12.10;99.90
48876;DHT22;34689;51.644;5.618;2022-11-15T17:43:34;12.00;99.90
48876;DHT22;34689;51.644;5.618;2022-11-15T17:46:04;12.00;99.90
48876;DHT22;34689;51.644;5.618;2022-11-15T17:48:30;12.00;99.90